Time;durP1;ratioP1;P1;durP2;ratioP2;P2;SDS_P1;SDS_P2;PMS_P1;PMS_P2;Temp;Humidity;BMP_temperature;BMP_pressure;BME280_temperature;BME280_humidity;BME280_pressure;Samples;Min_cycle;Max_cycle;Signal;HPM_P1;HPM_P2
2022/12/03 00:00:23;;;;;;;29.13;19.93;;;3.70;73.00;;;;;;4986396;28;20175;-85
2022/12/03 00:02:50;;;;;;;25.53;17.70;;;3.70;73.20;;;;;;5003658;28;20526;-85
2022/12/03 00:05:19;;;;;;;29.70;19.60;;;3.70;71.40;;;;;;5003001;28;20169;-84
2022/12/03 00:07:44;;;;;;;25.40;16.80;;;3.70;72.90;;;;;;5002349;28;20262;-85
2022/12/03 00:10:11;;;;;;;25.23;17.83;;;3.70;72.20;;;;;;4983277;28;20640;-83
2022/12/03 00:12:36;;;;;;;26.27;17.17;;;3.70;72.60;;;;;;5000842;28;20175;-85
2022/12/03 00:15:04;;;;;;;27.23;19.07;;;3.60;73.30;;;;;;5000738;28;20194;-84
2022/12/03 00:17:30;;;;;;;24.63;14.17;;;3.60;74.70;;;;;;5001919;28;20581;-86
2022/12/03 00:19:55;;;;;;;26.37;18.43;;;3.60;74.00;;;;;;5001307;28;20309;-85
2022/12/03 00:22:21;;;;;;;25.53;17.50;;;3.60;76.30;;;;;;5001144;28;20179;-84
2022/12/03 00:24:48;;;;;;;26.43;18.03;;;3.70;75.30;;;;;;5001148;28;20206;-83
2022/12/03 00:27:15;;;;;;;29.10;19.27;;;3.60;75.80;;;;;;4984915;28;20197;-85
2022/12/03 00:29:40;;;;;;;26.23;16.93;;;3.70;75.90;;;;;;4984314;28;20725;-84
2022/12/03 00:32:06;;;;;;;24.13;17.77;;;3.50;76.40;;;;;;4984831;28;20183;-85
2022/12/03 00:34:34;;;;;;;26.87;17.57;;;3.50;78.60;;;;;;5002034;28;20202;-82
2022/12/03 00:36:59;;;;;;;25.37;16.57;;;3.50;77.10;;;;;;5015185;28;20175;-80
2022/12/03 00:39:25;;;;;;;27.30;19.67;;;3.50;77.40;;;;;;5019221;28;20173;-79
2022/12/03 00:41:51;;;;;;;29.87;19.87;;;3.50;78.60;;;;;;5018175;28;20222;-82
2022/12/03 00:44:19;;;;;;;25.83;18.70;;;3.50;78.90;;;;;;4996727;28;20175;-81
2022/12/03 00:47:12;;;;;;;23.20;17.60;;;3.50;78.60;;;;;;5005525;28;20194;-82
2022/12/03 00:49:37;;;;;;;25.43;18.10;;;3.50;79.10;;;;;;5001903;28;20233;-85
2022/12/03 00:52:03;;;;;;;26.37;17.53;;;3.50;78.10;;;;;;5001644;28;20632;-85
2022/12/03 00:54:29;;;;;;;24.23;17.57;;;3.50;78.80;;;;;;5001476;28;20175;-84
2022/12/03 00:56:55;;;;;;;24.83;16.23;;;3.60;78.50;;;;;;4985753;28;20267;-83
2022/12/03 00:59:21;;;;;;;25.00;17.30;;;3.50;78.20;;;;;;5001506;28;20221;-86
2022/12/03 01:01:47;;;;;;;26.20;18.83;;;3.50;79.00;;;;;;5002567;28;20167;-84
2022/12/03 01:04:14;;;;;;;23.50;17.97;;;3.50;78.90;;;;;;5000420;28;20217;-85
2022/12/03 01:06:40;;;;;;;27.50;18.37;;;3.50;79.60;;;;;;5003299;28;20182;-85
2022/12/03 01:09:06;;;;;;;25.43;17.73;;;3.50;79.50;;;;;;5004376;28;20573;-84
2022/12/03 01:11:37;;;;;;;23.97;17.30;;;3.60;77.90;;;;;;5003342;28;20707;-84
2022/12/03 01:14:13;;;;;;;26.80;18.13;;;3.50;78.30;;;;;;5005447;28;20171;-85
2022/12/03 01:16:44;;;;;;;25.63;17.47;;;3.50;80.50;;;;;;5016346;28;20167;-85
2022/12/03 01:19:14;;;;;;;26.20;17.60;;;3.50;80.30;;;;;;4995636;28;20186;-85
2022/12/03 01:21:45;;;;;;;25.60;18.10;;;3.40;78.20;;;;;;4997411;28;20177;-84
2022/12/03 01:24:11;;;;;;;25.77;17.53;;;3.50;79.70;;;;;;4995941;28;20183;-84
2022/12/03 01:26:37;;;;;;;24.43;16.97;;;3.50;79.30;;;;;;4996801;28;20310;-84
2022/12/03 01:29:04;;;;;;;23.30;16.60;;;3.50;79.80;;;;;;4996259;28;20257;-85
2022/12/03 01:34:14;;;;;;;24.80;17.87;;;3.40;81.10;;;;;;4999864;28;20290;-85
2022/12/03 01:36:40;;;;;;;24.57;17.80;;;3.50;81.50;;;;;;4998010;28;20222;-83
2022/12/03 01:39:06;;;;;;;26.43;18.43;;;3.40;81.10;;;;;;4997969;28;20589;-83
2022/12/03 01:41:35;;;;;;;27.67;19.83;;;3.50;82.40;;;;;;4997288;28;20234;-85
2022/12/03 01:44:03;;;;;;;25.47;18.57;;;3.50;81.40;;;;;;4995747;28;20241;-84
2022/12/03 01:46:36;;;;;;;24.70;18.47;;;3.50;80.40;;;;;;4997160;28;20164;-84
2022/12/03 01:49:02;;;;;;;25.27;17.37;;;3.50;82.10;;;;;;4996321;28;20750;-85
2022/12/03 01:51:29;;;;;;;27.73;18.83;;;3.50;80.10;;;;;;4995394;28;20175;-81
2022/12/03 01:53:55;;;;;;;23.90;17.10;;;3.50;80.70;;;;;;4995901;28;20194;-84
2022/12/03 01:56:21;;;;;;;27.00;17.77;;;3.50;80.20;;;;;;4995208;28;20680;-84
2022/12/03 01:58:47;;;;;;;25.63;16.60;;;3.50;79.60;;;;;;5001236;28;20237;-83
2022/12/03 02:01:16;;;;;;;24.50;17.30;;;3.40;81.00;;;;;;4997727;28;20234;-83
2022/12/03 02:03:43;;;;;;;26.07;17.13;;;3.40;81.90;;;;;;4997380;28;20253;-84
2022/12/03 02:06:16;;;;;;;25.13;17.70;;;3.40;81.90;;;;;;4997301;28;20198;-83
2022/12/03 02:08:43;;;;;;;24.73;18.43;;;3.40;81.80;;;;;;4997814;28;20214;-84
2022/12/03 02:11:30;;;;;;;25.10;17.33;;;3.40;82.00;;;;;;4996733;28;20171;-83
2022/12/03 02:14:01;;;;;;;26.47;17.33;;;3.40;81.70;;;;;;4979972;28;20170;-84
2022/12/03 02:16:27;;;;;;;22.80;17.03;;;3.30;82.50;;;;;;4997632;28;20182;-84
2022/12/03 02:18:53;;;;;;;27.37;17.63;;;3.40;83.80;;;;;;4997102;28;20167;-85
2022/12/03 02:21:25;;;;;;;24.90;18.00;;;3.30;83.40;;;;;;4999834;28;20173;-84
2022/12/03 02:23:51;;;;;;;23.63;16.67;;;3.40;84.80;;;;;;5002311;28;20229;-84
2022/12/03 02:26:16;;;;;;;27.83;17.97;;;3.30;83.60;;;;;;5004379;28;20639;-80
2022/12/03 02:28:42;;;;;;;27.43;18.33;;;3.30;85.10;;;;;;4999249;28;20210;-83
2022/12/03 02:31:08;;;;;;;27.40;17.93;;;3.40;84.30;;;;;;4999746;28;20175;-84
2022/12/03 02:33:35;;;;;;;24.97;15.40;;;3.40;83.30;;;;;;4998367;28;20229;-83
2022/12/03 02:36:04;;;;;;;23.60;15.63;;;3.30;83.50;;;;;;4995984;28;20155;-83
2022/12/03 02:38:32;;;;;;;30.23;20.00;;;3.30;84.80;;;;;;4995108;28;20239;-85
2022/12/03 02:41:08;;;;;;;23.60;15.90;;;3.30;85.40;;;;;;4998174;28;20657;-83
2022/12/03 02:43:34;;;;;;;28.70;20.23;;;3.30;86.10;;;;;;4995644;28;20163;-84
2022/12/03 02:46:02;;;;;;;25.90;17.30;;;3.30;87.40;;;;;;4977943;28;20182;-83
2022/12/03 02:48:36;;;;;;;26.43;19.17;;;3.30;87.50;;;;;;4994848;28;20836;-85
2022/12/03 02:51:08;;;;;;;25.57;17.93;;;3.30;86.00;;;;;;4995526;28;20179;-85
2022/12/03 02:53:47;;;;;;;28.93;18.17;;;3.30;87.90;;;;;;4994019;28;20194;-85
2022/12/03 02:56:17;;;;;;;25.37;17.27;;;3.50;87.20;;;;;;4996913;28;20179;-85
2022/12/03 02:58:45;;;;;;;24.17;16.60;;;3.40;85.70;;;;;;4982261;28;20265;-84
2022/12/03 03:01:14;;;;;;;26.73;18.63;;;3.40;84.20;;;;;;5006698;28;20165;-81
2022/12/03 03:03:41;;;;;;;27.30;19.07;;;3.30;83.90;;;;;;4996939;28;20196;-83
2022/12/03 03:06:07;;;;;;;26.30;17.97;;;3.30;84.60;;;;;;5021109;28;20178;-84
2022/12/03 03:08:34;;;;;;;27.27;18.43;;;3.30;84.20;;;;;;5001208;28;20203;-83
2022/12/03 03:11:01;;;;;;;25.30;17.90;;;3.30;86.10;;;;;;5012946;28;20234;-84
2022/12/03 03:13:31;;;;;;;26.60;18.87;;;3.30;84.80;;;;;;5003172;28;20210;-83
2022/12/03 03:15:57;;;;;;;28.30;19.80;;;3.40;86.20;;;;;;5004489;28;20171;-84
2022/12/03 03:18:23;;;;;;;28.57;17.93;;;3.50;86.40;;;;;;5004868;28;20250;-83
2022/12/03 03:20:50;;;;;;;25.50;17.57;;;3.40;86.00;;;;;;4980586;28;20209;-82
2022/12/03 03:23:18;;;;;;;25.77;17.10;;;3.40;84.70;;;;;;4997378;28;20168;-84
2022/12/03 03:25:49;;;;;;;30.00;19.13;;;3.40;84.00;;;;;;4996791;28;20202;-84
2022/12/03 03:28:15;;;;;;;27.03;18.87;;;3.40;85.30;;;;;;4997748;28;20213;-84
2022/12/03 03:30:42;;;;;;;27.77;18.53;;;3.40;85.70;;;;;;4997048;28;20183;-84
2022/12/03 03:33:11;;;;;;;28.97;20.97;;;3.50;86.70;;;;;;4998607;28;20159;-84
2022/12/03 03:35:37;;;;;;;27.03;18.37;;;3.40;86.50;;;;;;4998121;28;20171;-82
2022/12/03 03:38:04;;;;;;;27.13;19.23;;;3.60;85.70;;;;;;4998646;28;20171;-83
2022/12/03 03:40:30;;;;;;;24.73;17.37;;;3.50;85.40;;;;;;4997606;28;20167;-86
2022/12/03 03:42:56;;;;;;;24.53;17.57;;;3.50;84.90;;;;;;4979901;28;20226;-84
2022/12/03 03:45:22;;;;;;;27.23;19.70;;;3.50;84.50;;;;;;4996934;28;20594;-83
2022/12/03 03:47:48;;;;;;;27.90;20.47;;;3.40;84.80;;;;;;4996886;28;20260;-84
2022/12/03 03:50:15;;;;;;;28.20;20.67;;;3.40;85.60;;;;;;4998942;28;20171;-83
2022/12/03 03:52:41;;;;;;;29.37;20.13;;;3.50;86.10;;;;;;4998010;28;20187;-86
2022/12/03 03:55:09;;;;;;;26.67;18.60;;;3.50;86.70;;;;;;4997259;28;20257;-85
2022/12/03 03:57:35;;;;;;;23.27;15.83;;;3.50;86.50;;;;;;4998011;28;20168;-84
2022/12/03 04:00:00;;;;;;;26.70;18.73;;;3.40;85.60;;;;;;4996703;28;20179;-84
2022/12/03 04:02:26;;;;;;;26.43;19.03;;;3.40;85.60;;;;;;4996934;28;20210;-84
2022/12/03 04:04:52;;;;;;;27.77;20.23;;;3.40;85.80;;;;;;4996800;28;20175;-85
2022/12/03 04:07:18;;;;;;;23.93;17.97;;;3.50;85.70;;;;;;4979522;28;20252;-84
2022/12/03 04:09:44;;;;;;;26.70;18.47;;;3.50;84.80;;;;;;4979236;28;20312;-82
2022/12/03 04:14:57;;;;;;;24.53;18.70;;;3.50;84.30;;;;;;4995269;28;20194;-83
2022/12/03 04:17:23;;;;;;;24.73;17.97;;;3.50;84.50;;;;;;4996331;28;20229;-84
2022/12/03 04:19:49;;;;;;;25.23;18.70;;;3.50;84.90;;;;;;4996181;28;20645;-84
2022/12/03 04:30:27;;;;;;;27.00;18.40;;;3.50;83.00;;;;;;4995594;28;20182;-85
2022/12/03 04:35:43;;;;;;;26.67;19.00;;;3.50;83.80;;;;;;4996195;28;20249;-84
2022/12/03 04:38:10;;;;;;;23.93;17.57;;;3.50;83.50;;;;;;4996289;28;20172;-83
2022/12/03 04:43:20;;;;;;;25.23;17.17;;;3.40;84.80;;;;;;4995901;28;20194;-84
2022/12/03 04:45:46;;;;;;;26.00;17.13;;;3.40;85.00;;;;;;4995946;28;20631;-84
2022/12/03 04:48:13;;;;;;;27.23;17.53;;;3.50;84.60;;;;;;4989622;28;20217;-82
2022/12/03 04:50:38;;;;;;;25.47;18.47;;;3.30;83.30;;;;;;4995392;28;20250;-85
2022/12/03 04:53:04;;;;;;;24.67;15.67;;;3.40;84.40;;;;;;4978459;28;20690;-84
2022/12/03 04:55:30;;;;;;;28.80;17.57;;;3.30;85.40;;;;;;4995666;28;20665;-84
2022/12/03 04:57:55;;;;;;;27.73;19.90;;;3.30;86.80;;;;;;4995412;28;20179;-82
2022/12/03 05:00:21;;;;;;;24.03;16.63;;;3.40;86.80;;;;;;4994899;28;20171;-84
2022/12/03 05:02:46;;;;;;;28.27;18.70;;;3.50;84.60;;;;;;4978126;28;20219;-84
2022/12/03 05:05:12;;;;;;;25.50;18.10;;;3.40;83.00;;;;;;4975593;28;20283;-85
2022/12/03 05:07:38;;;;;;;26.70;17.43;;;3.40;83.20;;;;;;4975646;28;20192;-84
2022/12/03 05:10:05;;;;;;;23.37;18.30;;;3.40;82.60;;;;;;4975135;28;20171;-83
2022/12/03 05:12:30;;;;;;;25.17;17.50;;;3.40;83.20;;;;;;4975800;28;20183;-84
2022/12/03 05:14:56;;;;;;;25.57;17.10;;;3.30;83.00;;;;;;4976241;28;20172;-84
2022/12/03 05:17:21;;;;;;;27.27;17.23;;;3.30;83.80;;;;;;4958243;28;20175;-85
2022/12/03 05:22:31;;;;;;;23.20;16.17;;;3.30;85.00;;;;;;4976196;28;20203;-84
2022/12/03 05:24:57;;;;;;;22.67;16.27;;;3.20;84.70;;;;;;4977331;28;20164;-83
2022/12/03 05:27:22;;;;;;;26.73;17.47;;;3.20;86.90;;;;;;4979680;28;20199;-84
2022/12/03 05:29:48;;;;;;;27.77;19.13;;;3.20;87.50;;;;;;4981960;28;20316;-84
2022/12/03 05:32:14;;;;;;;25.33;17.83;;;3.20;88.10;;;;;;4999703;28;20152;-84
2022/12/03 05:34:42;;;;;;;27.50;19.47;;;3.30;87.60;;;;;;4994998;28;20528;-82
2022/12/03 05:37:20;;;;;;;25.47;16.80;;;3.40;87.60;;;;;;4969429;28;20176;-84
2022/12/03 05:39:47;;;;;;;26.37;16.87;;;3.30;86.80;;;;;;4976184;28;20664;-83
2022/12/03 05:44:57;;;;;;;26.63;18.97;;;3.20;88.90;;;;;;4975926;28;20194;-83
2022/12/03 05:47:22;;;;;;;26.07;16.87;;;3.30;90.00;;;;;;4977980;28;20636;-83
2022/12/03 05:49:48;;;;;;;26.63;18.07;;;3.30;88.00;;;;;;4976979;28;20214;-83
2022/12/03 05:52:13;;;;;;;25.07;17.17;;;3.20;88.60;;;;;;4975878;28;20710;-84
2022/12/03 05:54:39;;;;;;;26.30;18.07;;;3.20;90.00;;;;;;4975626;28;20528;-84
2022/12/03 05:57:05;;;;;;;27.13;17.43;;;3.20;90.00;;;;;;4975161;28;20219;-83
2022/12/03 05:59:30;;;;;;;27.33;18.50;;;3.20;89.90;;;;;;4958037;28;20214;-84
2022/12/03 06:01:56;;;;;;;26.00;19.17;;;3.20;90.30;;;;;;4976113;28;20637;-82
2022/12/03 06:04:22;;;;;;;24.27;16.87;;;3.20;90.80;;;;;;4976897;28;20203;-83
2022/12/03 06:06:47;;;;;;;26.70;18.13;;;3.20;90.90;;;;;;4957732;28;20193;-82
2022/12/03 06:09:13;;;;;;;25.33;18.50;;;3.20;90.70;;;;;;4975201;28;20226;-84
2022/12/03 06:11:39;;;;;;;27.83;19.17;;;3.20;90.90;;;;;;4974998;28;20255;-84
2022/12/03 06:14:06;;;;;;;26.87;18.27;;;3.20;91.10;;;;;;4980596;28;20667;-83
2022/12/03 06:16:32;;;;;;;29.80;19.93;;;3.20;91.20;;;;;;4981267;28;20216;-84
2022/12/03 06:18:58;;;;;;;26.30;19.10;;;3.20;91.40;;;;;;4975569;28;20267;-84
2022/12/03 06:21:23;;;;;;;27.03;19.83;;;3.30;91.30;;;;;;4974494;28;20199;-85
2022/12/03 06:23:49;;;;;;;27.93;19.87;;;3.30;91.20;;;;;;4975276;28;20176;-84
2022/12/03 06:26:15;;;;;;;29.73;19.53;;;3.30;91.20;;;;;;4978988;28;20171;-84
2022/12/03 06:28:45;;;;;;;27.53;18.50;;;3.20;90.90;;;;;;4962280;28;20219;-84
2022/12/03 06:31:11;;;;;;;26.97;19.03;;;3.20;91.70;;;;;;4978596;28;20228;-85
2022/12/03 06:33:37;;;;;;;26.83;19.80;;;3.20;92.70;;;;;;4978221;28;20197;-83
2022/12/03 06:36:02;;;;;;;29.50;19.33;;;3.20;92.70;;;;;;4979307;28;20172;-82
2022/12/03 06:38:28;;;;;;;28.90;20.10;;;3.20;92.50;;;;;;4975173;28;20215;-85
2022/12/03 06:40:54;;;;;;;26.80;20.07;;;3.10;93.00;;;;;;4974943;28;20517;-85
2022/12/03 06:43:19;;;;;;;28.53;20.77;;;3.30;93.70;;;;;;4975190;28;20175;-83
2022/12/03 06:45:47;;;;;;;29.67;20.77;;;3.30;93.40;;;;;;4956999;28;20182;-81
2022/12/03 06:48:14;;;;;;;28.00;19.80;;;3.30;93.60;;;;;;4973821;28;20290;-80
2022/12/03 06:50:40;;;;;;;28.73;20.37;;;3.30;93.30;;;;;;4973862;28;20198;-80
2022/12/03 06:53:06;;;;;;;27.67;20.27;;;3.30;93.30;;;;;;4974010;28;20786;-77
2022/12/03 06:55:31;;;;;;;31.13;21.17;;;3.40;92.80;;;;;;4973936;28;20183;-78
2022/12/03 06:57:57;;;;;;;29.93;19.93;;;3.40;91.80;;;;;;4974958;28;20652;-78
2022/12/03 07:00:23;;;;;;;26.70;19.83;;;3.30;91.60;;;;;;4956855;28;20176;-80
2022/12/03 07:02:48;;;;;;;26.50;18.77;;;3.40;92.10;;;;;;4974717;28;20254;-78
2022/12/03 07:05:14;;;;;;;32.37;20.53;;;3.30;92.50;;;;;;4974868;28;20258;-78
2022/12/03 07:07:40;;;;;;;28.07;20.40;;;3.30;92.70;;;;;;4974853;28;20219;-80
2022/12/03 07:10:06;;;;;;;27.13;18.63;;;3.30;92.70;;;;;;4956560;28;20238;-77
2022/12/03 07:12:32;;;;;;;29.77;19.53;;;3.40;92.10;;;;;;4974003;28;20183;-80
2022/12/03 07:14:58;;;;;;;28.60;19.60;;;3.30;91.90;;;;;;4974166;28;20183;-79
2022/12/03 07:17:23;;;;;;;27.47;19.80;;;3.40;92.30;;;;;;4973914;28;20212;-78
2022/12/03 07:19:49;;;;;;;28.97;19.20;;;3.30;92.40;;;;;;4974064;28;20231;-81
2022/12/03 07:22:15;;;;;;;30.90;19.57;;;3.30;92.40;;;;;;4974853;28;20184;-81
2022/12/03 07:24:40;;;;;;;27.80;18.33;;;3.30;92.30;;;;;;4957242;28;20654;-82
2022/12/03 07:27:06;;;;;;;29.77;19.83;;;3.30;92.20;;;;;;4975228;28;20207;-78
2022/12/03 07:30:09;;;;;;;29.47;21.23;;;3.30;92.50;;;;;;4980402;28;20682;-78
2022/12/03 07:32:35;;;;;;;29.40;20.00;;;3.40;92.60;;;;;;4983724;28;20167;-77
2022/12/03 07:35:06;;;;;;;25.47;18.93;;;3.30;91.70;;;;;;4983340;28;20258;-84
2022/12/03 07:37:32;;;;;;;32.80;21.43;;;3.40;91.30;;;;;;4985630;28;20152;-82
2022/12/03 07:39:58;;;;;;;29.87;19.73;;;3.40;90.80;;;;;;4966248;28;20172;-83
2022/12/03 07:42:24;;;;;;;26.47;19.43;;;3.30;90.60;;;;;;4985484;28;20178;-82
2022/12/03 07:44:50;;;;;;;25.83;19.90;;;3.40;91.20;;;;;;4964248;28;20532;-82
2022/12/03 07:47:16;;;;;;;28.07;19.03;;;3.50;91.60;;;;;;4961967;28;20446;-83
2022/12/03 07:49:44;;;;;;;29.33;19.93;;;3.50;91.50;;;;;;4980042;28;20612;-83
2022/12/03 07:52:13;;;;;;;26.90;19.23;;;3.40;91.00;;;;;;4981159;28;20160;-83
2022/12/03 07:54:39;;;;;;;28.67;20.17;;;3.40;92.40;;;;;;4980694;28;20175;-84
2022/12/03 07:57:06;;;;;;;27.90;20.10;;;3.40;92.30;;;;;;4962801;28;20237;-82
2022/12/03 07:59:31;;;;;;;29.60;20.60;;;3.40;92.20;;;;;;4962574;28;20181;-83
2022/12/03 08:01:57;;;;;;;31.27;21.67;;;3.40;92.70;;;;;;4982533;28;20547;-81
2022/12/03 08:04:27;;;;;;;31.93;21.10;;;3.40;92.70;;;;;;4963860;28;20536;-84
2022/12/03 08:06:53;;;;;;;30.37;19.97;;;3.40;92.40;;;;;;4980572;28;20562;-84
2022/12/03 08:09:20;;;;;;;30.40;22.27;;;3.50;92.90;;;;;;4981003;28;20242;-84
2022/12/03 08:11:49;;;;;;;28.67;19.60;;;3.50;92.30;;;;;;4991201;28;20267;-85
2022/12/03 08:14:20;;;;;;;31.50;21.77;;;3.50;92.20;;;;;;4981375;28;20179;-82
2022/12/03 08:16:46;;;;;;;30.10;20.67;;;3.50;92.40;;;;;;4987694;28;20214;-85
2022/12/03 08:19:16;;;;;;;31.73;21.07;;;3.50;91.70;;;;;;4986787;28;20175;-82
2022/12/03 08:21:43;;;;;;;29.30;19.77;;;3.40;92.40;;;;;;4980990;28;20270;-85
2022/12/03 08:24:19;;;;;;;34.13;22.73;;;3.40;92.40;;;;;;4980098;28;20175;-83
2022/12/03 08:26:47;;;;;;;32.03;22.80;;;3.40;93.40;;;;;;4979056;28;20164;-86
2022/12/03 08:29:16;;;;;;;29.10;20.03;;;3.50;92.70;;;;;;4980240;28;20228;-87
2022/12/03 08:31:50;;;;;;;33.27;22.80;;;3.50;92.20;;;;;;4980223;28;20651;-86
2022/12/03 08:34:17;;;;;;;31.43;22.43;;;3.50;91.20;;;;;;4980192;28;20195;-83
2022/12/03 08:36:43;;;;;;;34.10;22.43;;;3.50;91.70;;;;;;4979275;28;20255;-85
2022/12/03 08:39:36;;;;;;;30.70;20.57;;;3.60;91.60;;;;;;4979323;28;20206;-83
2022/12/03 08:42:40;;;;;;;34.37;23.17;;;3.60;91.20;;;;;;4981379;28;20158;-84
2022/12/03 08:45:27;;;;;;;34.03;23.33;;;3.70;91.10;;;;;;4978077;28;20171;-85
2022/12/03 08:48:04;;;;;;;33.27;22.17;;;3.60;90.50;;;;;;4980603;28;20176;-85
2022/12/03 08:50:34;;;;;;;32.13;19.67;;;3.60;90.80;;;;;;4984369;28;20175;-85
2022/12/03 08:53:16;;;;;;;30.83;19.93;;;3.60;90.70;;;;;;4979410;28;20258;-86
2022/12/03 08:55:52;;;;;;;31.90;21.07;;;3.50;90.70;;;;;;4980768;28;20687;-84
2022/12/03 08:58:30;;;;;;;31.40;20.67;;;3.50;91.60;;;;;;4979450;28;20171;-84
2022/12/03 09:01:08;;;;;;;32.40;21.23;;;3.40;91.40;;;;;;4977005;28;20651;-82
2022/12/03 09:03:35;;;;;;;32.83;23.60;;;3.40;92.30;;;;;;4979167;28;20175;-83
2022/12/03 09:06:02;;;;;;;30.90;20.17;;;3.40;92.80;;;;;;4980226;28;20176;-82
2022/12/03 09:08:27;;;;;;;34.67;23.20;;;3.40;92.60;;;;;;4981112;28;20695;-87
2022/12/03 09:10:53;;;;;;;34.03;22.30;;;3.40;93.10;;;;;;4964208;28;20180;-86
2022/12/03 09:13:19;;;;;;;34.67;22.67;;;3.40;92.70;;;;;;4981102;28;20247;-84
2022/12/03 09:15:44;;;;;;;31.53;21.37;;;3.50;92.70;;;;;;4986931;28;20242;-87
2022/12/03 09:18:13;;;;;;;35.53;23.23;;;3.50;92.20;;;;;;4984918;28;20172;-86
2022/12/03 09:20:41;;;;;;;36.97;23.90;;;3.60;91.80;;;;;;4982992;28;20204;-90
2022/12/03 09:23:07;;;;;;;32.23;22.30;;;3.60;91.40;;;;;;4965423;28;20671;-85
2022/12/03 09:25:33;;;;;;;34.33;23.20;;;3.60;90.90;;;;;;4990519;28;20175;-85
2022/12/03 09:27:58;;;;;;;34.20;21.17;;;3.60;91.30;;;;;;4991430;28;20167;-84
2022/12/03 09:30:27;;;;;;;33.27;21.90;;;3.60;90.70;;;;;;4999986;28;20152;-83
2022/12/03 09:32:53;;;;;;;32.73;21.97;;;3.80;90.70;;;;;;4999469;28;20160;-86
2022/12/03 09:35:21;;;;;;;33.90;23.63;;;3.50;90.80;;;;;;4996953;28;20182;-80
2022/12/03 09:38:24;;;;;;;33.77;22.73;;;3.60;91.10;;;;;;4995615;28;20164;-87
2022/12/03 09:40:51;;;;;;;33.03;22.00;;;3.60;90.90;;;;;;4989564;28;20168;-85
2022/12/03 09:43:18;;;;;;;35.77;22.97;;;3.60;90.90;;;;;;4987387;28;20632;-86
2022/12/03 09:45:52;;;;;;;35.53;22.37;;;3.60;91.10;;;;;;4984777;28;20168;-81
2022/12/03 09:48:21;;;;;;;35.33;24.67;;;3.60;91.10;;;;;;4967812;28;20219;-87
2022/12/03 09:50:47;;;;;;;32.77;22.07;;;3.70;90.80;;;;;;4992152;28;20171;-79
2022/12/03 09:53:20;;;;;;;31.03;21.77;;;3.70;90.50;;;;;;5006507;28;20206;-86
2022/12/03 09:55:52;;;;;;;33.27;20.87;;;3.60;90.60;;;;;;4998366;28;20198;-85
2022/12/03 09:58:19;;;;;;;37.50;25.30;;;3.60;91.10;;;;;;5000226;28;20170;-85
2022/12/03 10:00:50;;;;;;;36.53;23.90;;;3.60;91.90;;;;;;5001042;28;20188;-88
2022/12/03 10:03:20;;;;;;;30.90;22.57;;;3.70;92.20;;;;;;4997255;28;20164;-82
2022/12/03 10:05:46;;;;;;;32.93;22.03;;;3.80;90.40;;;;;;4995061;28;20205;-90
2022/12/03 10:08:19;;;;;;;34.93;24.30;;;3.70;90.60;;;;;;4999386;28;20703;-84
2022/12/03 10:10:48;;;;;;;35.63;24.17;;;3.80;91.00;;;;;;5000545;28;20185;-87
2022/12/03 10:13:22;;;;;;;36.13;23.67;;;3.80;90.40;;;;;;4981893;28;20174;-87
2022/12/03 10:15:47;;;;;;;36.50;23.17;;;3.90;90.10;;;;;;4994087;28;20170;-89
2022/12/03 10:18:23;;;;;;;33.70;23.10;;;3.90;88.60;;;;;;4990214;28;20183;-89
2022/12/03 10:20:52;;;;;;;32.53;25.00;;;4.00;88.50;;;;;;4983045;28;20163;-88
2022/12/03 10:23:24;;;;;;;34.67;23.67;;;4.10;86.00;;;;;;4988571;28;20175;-88
2022/12/03 10:25:54;;;;;;;31.13;21.43;;;4.10;83.30;;;;;;4987175;28;20171;-85
2022/12/03 10:28:34;;;;;;;35.47;21.47;;;4.10;83.00;;;;;;5007978;28;20708;-85
2022/12/03 10:31:03;;;;;;;35.03;24.43;;;4.00;81.60;;;;;;5002276;28;20183;-87
2022/12/03 10:33:38;;;;;;;37.37;25.17;;;3.80;83.80;;;;;;5012778;28;20183;-81
2022/12/03 10:36:19;;;;;;;32.90;22.33;;;4.00;85.80;;;;;;4996932;28;20186;-86
2022/12/03 10:38:46;;;;;;;32.97;21.30;;;4.10;85.10;;;;;;4992738;28;20167;-84
2022/12/03 10:41:27;;;;;;;36.20;23.33;;;4.10;82.80;;;;;;4990006;28;20172;-86
2022/12/03 10:43:53;;;;;;;31.20;19.13;;;4.00;81.90;;;;;;4992386;28;20233;-81
2022/12/03 10:46:22;;;;;;;36.07;23.73;;;4.00;80.80;;;;;;5003344;28;20183;-81
2022/12/03 10:49:09;;;;;;;31.93;19.17;;;4.10;83.00;;;;;;4997666;28;20215;-85
2022/12/03 10:51:36;;;;;;;37.00;21.13;;;4.00;80.10;;;;;;4964708;28;20187;-85
2022/12/03 10:54:02;;;;;;;32.53;22.07;;;3.90;81.40;;;;;;4968989;28;20230;-89
2022/12/03 10:56:28;;;;;;;35.13;23.23;;;3.90;83.20;;;;;;4990141;28;20182;-86
2022/12/03 10:58:54;;;;;;;32.47;21.83;;;4.00;83.70;;;;;;4987904;28;20187;-86
2022/12/03 11:01:25;;;;;;;32.17;22.57;;;4.00;82.20;;;;;;4986737;28;20179;-86
2022/12/03 11:03:51;;;;;;;32.33;21.83;;;4.00;82.30;;;;;;4988407;28;20539;-86
2022/12/03 11:06:19;;;;;;;31.63;21.60;;;4.00;81.10;;;;;;4974640;28;20175;-87
2022/12/03 11:08:48;;;;;;;31.33;21.83;;;4.10;81.20;;;;;;4979133;28;20704;-83
2022/12/03 11:11:19;;;;;;;30.90;21.47;;;4.00;80.50;;;;;;4974336;28;20179;-85
2022/12/03 11:13:58;;;;;;;30.87;20.97;;;4.00;79.90;;;;;;4982141;28;20179;-84
2022/12/03 11:16:39;;;;;;;31.30;21.73;;;4.00;79.30;;;;;;4988172;28;20174;-85
2022/12/03 11:19:16;;;;;;;29.83;20.47;;;4.00;78.90;;;;;;4978719;28;20187;-85
2022/12/03 11:22:04;;;;;;;31.87;21.97;;;4.00;78.70;;;;;;4991160;28;20644;-84
2022/12/03 11:24:40;;;;;;;31.27;20.97;;;4.00;78.90;;;;;;4983714;28;20175;-83
2022/12/03 11:27:07;;;;;;;29.57;17.50;;;4.00;78.10;;;;;;4989041;28;20338;-83
2022/12/03 11:29:52;;;;;;;32.57;22.40;;;3.90;77.10;;;;;;4993241;28;20321;-82
2022/12/03 11:32:38;;;;;;;32.50;21.43;;;3.90;77.80;;;;;;4984356;28;20290;-82
2022/12/03 11:35:14;;;;;;;32.67;22.17;;;4.00;77.20;;;;;;4979630;28;20199;-82
2022/12/03 11:37:40;;;;;;;33.20;22.23;;;4.00;75.70;;;;;;4987212;28;20183;-86
2022/12/03 11:40:18;;;;;;;31.00;20.73;;;4.00;77.30;;;;;;4974858;28;20214;-84
2022/12/03 11:42:46;;;;;;;27.80;19.13;;;4.10;78.80;;;;;;4991312;28;20266;-83
2022/12/03 11:45:25;;;;;;;27.17;18.70;;;4.10;75.10;;;;;;4988197;28;20182;-85
2022/12/03 11:47:57;;;;;;;34.53;22.57;;;4.00;74.50;;;;;;4982667;28;20314;-80
2022/12/03 11:50:28;;;;;;;30.63;21.63;;;4.00;77.20;;;;;;4984581;28;20187;-81
2022/12/03 11:52:59;;;;;;;32.03;22.10;;;4.10;76.20;;;;;;4994902;28;20247;-83
2022/12/03 11:55:36;;;;;;;32.60;19.97;;;4.00;75.60;;;;;;4992199;28;20178;-83
2022/12/03 11:58:22;;;;;;;31.90;21.47;;;4.10;74.00;;;;;;4993724;28;20245;-84
2022/12/03 12:00:53;;;;;;;33.93;23.03;;;4.00;73.80;;;;;;4985081;28;20179;-79
2022/12/03 12:03:25;;;;;;;33.40;23.23;;;4.10;73.90;;;;;;4982701;28;20233;-83
2022/12/03 12:06:01;;;;;;;30.50;19.47;;;4.20;71.70;;;;;;4973129;28;20322;-81
2022/12/03 12:08:27;;;;;;;30.47;21.07;;;4.20;67.20;;;;;;4988718;28;20223;-85
2022/12/03 12:10:52;;;;;;;30.33;20.77;;;4.20;67.60;;;;;;4986521;28;20186;-83
2022/12/03 12:13:26;;;;;;;30.57;20.83;;;4.20;66.40;;;;;;4982465;28;20257;-81
2022/12/03 12:15:52;;;;;;;26.70;18.83;;;4.20;65.50;;;;;;4982199;28;20172;-82
2022/12/03 12:18:34;;;;;;;29.90;20.73;;;4.20;65.40;;;;;;4956671;28;20184;-82
2022/12/03 12:21:38;;;;;;;27.27;19.03;;;4.10;66.00;;;;;;4976068;28;20572;-82
2022/12/03 12:24:30;;;;;;;30.17;19.07;;;4.10;64.30;;;;;;4974633;28;20258;-84
2022/12/03 12:27:10;;;;;;;31.53;19.03;;;4.00;66.90;;;;;;4972729;28;20561;-81
2022/12/03 12:29:39;;;;;;;30.17;21.20;;;4.10;65.20;;;;;;4991965;28;20308;-81
2022/12/03 12:32:07;;;;;;;31.60;20.33;;;4.10;66.10;;;;;;4984603;28;20179;-84
2022/12/03 12:34:38;;;;;;;28.03;20.83;;;4.20;65.00;;;;;;4986410;28;20187;-81
2022/12/03 12:37:09;;;;;;;28.07;16.80;;;4.20;66.10;;;;;;4981682;28;20235;-81
2022/12/03 12:39:35;;;;;;;32.83;22.17;;;4.20;62.80;;;;;;4974557;28;20242;-80
2022/12/03 12:42:05;;;;;;;31.67;21.70;;;4.20;65.10;;;;;;4975178;28;20285;-81
2022/12/03 12:44:30;;;;;;;30.03;22.13;;;4.30;63.60;;;;;;4985037;28;20175;-82
2022/12/03 12:47:00;;;;;;;32.63;21.83;;;4.20;63.10;;;;;;4988369;28;20166;-82
2022/12/03 12:49:27;;;;;;;31.90;21.03;;;4.20;61.90;;;;;;4986831;28;20667;-81
2022/12/03 12:51:53;;;;;;;30.43;19.57;;;4.30;62.10;;;;;;4982713;28;20551;-81
2022/12/03 12:54:20;;;;;;;32.67;21.90;;;4.20;63.20;;;;;;4977223;28;20273;-82
2022/12/03 12:56:48;;;;;;;29.63;20.33;;;4.10;63.60;;;;;;4986616;28;20238;-82
2022/12/03 12:59:18;;;;;;;30.43;20.50;;;4.10;63.50;;;;;;4997753;28;20202;-83
2022/12/03 13:01:46;;;;;;;29.73;20.33;;;4.10;65.30;;;;;;4986394;28;20170;-82
2022/12/03 13:04:17;;;;;;;31.33;20.97;;;4.10;64.30;;;;;;4996441;28;20636;-82
2022/12/03 13:06:44;;;;;;;30.73;21.43;;;4.10;64.20;;;;;;4992320;28;20270;-82
2022/12/03 13:09:23;;;;;;;31.67;22.03;;;4.10;64.70;;;;;;4993891;28;20230;-81